sensor_id;sensor_type;location;lat;lon;timestamp;pressure;altitude;pressure_sealevel;temperature;humidity
50702;BME280;36670;50.094;8.496;2023-01-27T00:01:05;100802.16;;;3.98;67.66
50702;BME280;36670;50.094;8.496;2023-01-27T00:03:31;100802.41;;;3.82;67.68
50702;BME280;36670;50.094;8.496;2023-01-27T00:05:56;100814.38;;;3.22;69.52
50702;BME280;36670;50.094;8.496;2023-01-27T00:08:26;100803.94;;;3.91;68.71
50702;BME280;36670;50.094;8.496;2023-01-27T00:10:51;100804.06;;;4.26;67.86
50702;BME280;36670;50.094;8.496;2023-01-27T00:13:40;100797.97;;;4.02;68.44
50702;BME280;36670;50.094;8.496;2023-01-27T00:16:06;100796.59;;;4.41;67.15
50702;BME280;36670;50.094;8.496;2023-01-27T00:18:31;100797.41;;;4.42;67.22
50702;BME280;36670;50.094;8.496;2023-01-27T00:20:56;100798.69;;;3.89;68.77
50702;BME280;36670;50.094;8.496;2023-01-27T00:23:40;100798.94;;;3.73;69.17
50702;BME280;36670;50.094;8.496;2023-01-27T00:26:24;100795.63;;;3.56;69.67
50702;BME280;36670;50.094;8.496;2023-01-27T00:28:50;100786.03;;;3.82;69.33
50702;BME280;36670;50.094;8.496;2023-01-27T00:31:16;100782.44;;;3.81;69.38
50702;BME280;36670;50.094;8.496;2023-01-27T00:34:00;100785.16;;;3.81;69.15
50702;BME280;36670;50.094;8.496;2023-01-27T00:36:27;100784.53;;;4.07;69.02
50702;BME280;36670;50.094;8.496;2023-01-27T00:38:53;100781.09;;;4.20;68.80
50702;BME280;36670;50.094;8.496;2023-01-27T00:41:19;100779.66;;;3.74;68.83
50702;BME280;36670;50.094;8.496;2023-01-27T00:43:49;100777.09;;;3.95;69.36
50702;BME280;36670;50.094;8.496;2023-01-27T00:46:15;100780.16;;;4.06;68.65
50702;BME280;36670;50.094;8.496;2023-01-27T00:48:41;100773.72;;;3.92;69.04
50702;BME280;36670;50.094;8.496;2023-01-27T00:51:07;100782.66;;;3.58;70.03
50702;BME280;36670;50.094;8.496;2023-01-27T00:53:33;100776.00;;;3.89;69.51
50702;BME280;36670;50.094;8.496;2023-01-27T00:55:58;100779.53;;;4.11;69.27
50702;BME280;36670;50.094;8.496;2023-01-27T00:58:24;100774.84;;;4.05;69.03
50702;BME280;36670;50.094;8.496;2023-01-27T01:00:52;100771.91;;;3.78;69.70
50702;BME280;36670;50.094;8.496;2023-01-27T01:03:17;100778.53;;;3.90;69.73
50702;BME280;36670;50.094;8.496;2023-01-27T01:05:43;100782.69;;;3.86;69.83
50702;BME280;36670;50.094;8.496;2023-01-27T01:08:08;100780.97;;;4.07;69.54
50702;BME280;36670;50.094;8.496;2023-01-27T01:10:36;100779.19;;;3.92;69.63
50702;BME280;36670;50.094;8.496;2023-01-27T01:13:01;100790.81;;;3.80;70.23
50702;BME280;36670;50.094;8.496;2023-01-27T01:15:26;100798.75;;;3.53;71.03
50702;BME280;36670;50.094;8.496;2023-01-27T01:17:52;100793.56;;;3.58;71.04
50702;BME280;36670;50.094;8.496;2023-01-27T01:20:17;100798.56;;;3.54;71.13
50702;BME280;36670;50.094;8.496;2023-01-27T01:22:42;100800.44;;;3.97;70.61
50702;BME280;36670;50.094;8.496;2023-01-27T01:25:08;100807.81;;;3.75;70.63
50702;BME280;36670;50.094;8.496;2023-01-27T01:27:33;100799.00;;;3.80;70.97
50702;BME280;36670;50.094;8.496;2023-01-27T01:29:58;100806.22;;;3.66;71.02
50702;BME280;36670;50.094;8.496;2023-01-27T01:32:25;100799.53;;;3.68;70.96
50702;BME280;36670;50.094;8.496;2023-01-27T01:34:50;100796.28;;;3.80;70.68
50702;BME280;36670;50.094;8.496;2023-01-27T01:37:15;100805.84;;;4.12;70.36
50702;BME280;36670;50.094;8.496;2023-01-27T01:39:41;100801.81;;;4.08;70.04
50702;BME280;36670;50.094;8.496;2023-01-27T01:42:06;100798.69;;;3.89;70.50
50702;BME280;36670;50.094;8.496;2023-01-27T01:44:31;100798.63;;;3.83;71.17
50702;BME280;36670;50.094;8.496;2023-01-27T01:46:57;100794.16;;;4.25;70.19
50702;BME280;36670;50.094;8.496;2023-01-27T01:49:34;100794.91;;;3.90;70.69
50702;BME280;36670;50.094;8.496;2023-01-27T01:52:08;100797.03;;;4.17;69.85
50702;BME280;36670;50.094;8.496;2023-01-27T01:54:39;100799.91;;;4.37;69.38
50702;BME280;36670;50.094;8.496;2023-01-27T01:57:07;100791.81;;;4.22;69.78
50702;BME280;36670;50.094;8.496;2023-01-27T01:59:53;100793.59;;;4.08;70.15
50702;BME280;36670;50.094;8.496;2023-01-27T02:02:22;100797.53;;;4.62;69.77
50702;BME280;36670;50.094;8.496;2023-01-27T02:04:54;100789.94;;;4.57;68.79
50702;BME280;36670;50.094;8.496;2023-01-27T02:07:30;100791.28;;;4.33;69.22
50702;BME280;36670;50.094;8.496;2023-01-27T02:09:58;100787.59;;;4.19;69.14
50702;BME280;36670;50.094;8.496;2023-01-27T02:12:24;100797.91;;;3.96;70.21
50702;BME280;36670;50.094;8.496;2023-01-27T02:14:49;100788.47;;;3.76;71.00
50702;BME280;36670;50.094;8.496;2023-01-27T02:17:15;100791.81;;;4.22;69.62
50702;BME280;36670;50.094;8.496;2023-01-27T02:20:03;100791.25;;;4.05;70.08
50702;BME280;36670;50.094;8.496;2023-01-27T02:22:44;100798.41;;;4.06;70.15
50702;BME280;36670;50.094;8.496;2023-01-27T02:25:22;100777.16;;;4.01;70.06
50702;BME280;36670;50.094;8.496;2023-01-27T02:27:50;100783.09;;;4.12;70.36
50702;BME280;36670;50.094;8.496;2023-01-27T02:30:16;100787.56;;;3.91;70.74
50702;BME280;36670;50.094;8.496;2023-01-27T02:32:41;100779.47;;;4.04;70.19
50702;BME280;36670;50.094;8.496;2023-01-27T02:35:10;100786.84;;;4.04;70.00
50702;BME280;36670;50.094;8.496;2023-01-27T02:37:37;100790.13;;;3.71;71.78
50702;BME280;36670;50.094;8.496;2023-01-27T02:40:04;100786.19;;;4.02;70.37
50702;BME280;36670;50.094;8.496;2023-01-27T02:42:30;100786.53;;;3.92;70.99
50702;BME280;36670;50.094;8.496;2023-01-27T02:44:55;100788.94;;;3.58;71.70
50702;BME280;36670;50.094;8.496;2023-01-27T02:47:21;100789.00;;;3.87;71.45
50702;BME280;36670;50.094;8.496;2023-01-27T02:49:46;100787.44;;;3.56;72.14
50702;BME280;36670;50.094;8.496;2023-01-27T02:52:13;100792.66;;;3.72;72.08
50702;BME280;36670;50.094;8.496;2023-01-27T02:54:38;100797.66;;;3.47;72.57
50702;BME280;36670;50.094;8.496;2023-01-27T02:57:04;100791.00;;;3.78;71.69
50702;BME280;36670;50.094;8.496;2023-01-27T02:59:29;100794.16;;;3.75;71.88
50702;BME280;36670;50.094;8.496;2023-01-27T03:01:54;100795.75;;;3.91;71.27
50702;BME280;36670;50.094;8.496;2023-01-27T03:04:19;100794.97;;;3.75;72.23
50702;BME280;36670;50.094;8.496;2023-01-27T03:06:45;100789.13;;;4.00;71.00
50702;BME280;36670;50.094;8.496;2023-01-27T03:09:10;100795.88;;;3.83;71.49
50702;BME280;36670;50.094;8.496;2023-01-27T03:11:35;100797.00;;;3.88;71.63
50702;BME280;36670;50.094;8.496;2023-01-27T03:14:19;100798.81;;;3.81;71.55
50702;BME280;36670;50.094;8.496;2023-01-27T03:16:44;100800.53;;;3.61;72.13
50702;BME280;36670;50.094;8.496;2023-01-27T03:19:28;100805.00;;;3.90;71.20
50702;BME280;36670;50.094;8.496;2023-01-27T03:21:54;100807.53;;;3.91;70.89
50702;BME280;36670;50.094;8.496;2023-01-27T03:24:20;100806.31;;;3.94;70.51
50702;BME280;36670;50.094;8.496;2023-01-27T03:26:45;100807.09;;;3.66;71.93
50702;BME280;36670;50.094;8.496;2023-01-27T03:29:10;100812.66;;;3.80;71.94
50702;BME280;36670;50.094;8.496;2023-01-27T03:31:54;100808.13;;;3.65;71.58
50702;BME280;36670;50.094;8.496;2023-01-27T03:34:20;100820.09;;;3.64;72.18
50702;BME280;36670;50.094;8.496;2023-01-27T03:36:45;100820.22;;;3.78;71.62
50702;BME280;36670;50.094;8.496;2023-01-27T03:39:29;100812.34;;;3.68;71.61
50702;BME280;36670;50.094;8.496;2023-01-27T03:42:13;100812.28;;;3.61;72.22
50702;BME280;36670;50.094;8.496;2023-01-27T03:44:57;100813.63;;;3.50;71.88
50702;BME280;36670;50.094;8.496;2023-01-27T03:47:41;100812.81;;;3.50;72.14
50702;BME280;36670;50.094;8.496;2023-01-27T03:50:07;100813.84;;;3.49;72.21
50702;BME280;36670;50.094;8.496;2023-01-27T03:52:38;100821.50;;;3.60;72.01
50702;BME280;36670;50.094;8.496;2023-01-27T03:55:03;100811.63;;;3.59;71.80
50702;BME280;36670;50.094;8.496;2023-01-27T03:57:29;100815.00;;;3.61;72.03
50702;BME280;36670;50.094;8.496;2023-01-27T03:59:54;100819.16;;;3.57;72.00
50702;BME280;36670;50.094;8.496;2023-01-27T04:02:19;100818.66;;;3.47;72.83
50702;BME280;36670;50.094;8.496;2023-01-27T04:05:03;100819.16;;;3.57;72.18
50702;BME280;36670;50.094;8.496;2023-01-27T04:07:47;100819.63;;;3.82;71.81
50702;BME280;36670;50.094;8.496;2023-01-27T04:10:13;100821.53;;;3.82;71.65
50702;BME280;36670;50.094;8.496;2023-01-27T04:12:38;100824.13;;;3.90;71.12
50702;BME280;36670;50.094;8.496;2023-01-27T04:15:04;100815.06;;;3.89;70.71
50702;BME280;36670;50.094;8.496;2023-01-27T04:17:30;100825.22;;;3.74;71.40
50702;BME280;36670;50.094;8.496;2023-01-27T04:20:03;100823.78;;;3.78;71.29
50702;BME280;36670;50.094;8.496;2023-01-27T04:22:29;100827.50;;;3.92;70.57
50702;BME280;36670;50.094;8.496;2023-01-27T04:24:54;100819.97;;;3.94;70.98
50702;BME280;36670;50.094;8.496;2023-01-27T04:27:19;100829.97;;;4.08;70.62
50702;BME280;36670;50.094;8.496;2023-01-27T04:29:45;100830.81;;;3.87;71.23
50702;BME280;36670;50.094;8.496;2023-01-27T04:32:11;100822.50;;;3.74;71.91
50702;BME280;36670;50.094;8.496;2023-01-27T04:34:37;100821.94;;;3.79;71.36
50702;BME280;36670;50.094;8.496;2023-01-27T04:37:04;100814.03;;;3.90;71.38
50702;BME280;36670;50.094;8.496;2023-01-27T04:39:31;100814.75;;;3.99;70.92
50702;BME280;36670;50.094;8.496;2023-01-27T04:41:57;100819.44;;;3.84;71.26
50702;BME280;36670;50.094;8.496;2023-01-27T04:44:22;100826.41;;;3.86;71.04
50702;BME280;36670;50.094;8.496;2023-01-27T04:46:51;100821.63;;;3.52;72.13
50702;BME280;36670;50.094;8.496;2023-01-27T04:49:18;100827.63;;;3.62;71.67
50702;BME280;36670;50.094;8.496;2023-01-27T04:51:43;100821.69;;;3.37;72.35
50702;BME280;36670;50.094;8.496;2023-01-27T04:54:09;100823.72;;;3.50;71.73
50702;BME280;36670;50.094;8.496;2023-01-27T04:56:37;100830.41;;;3.47;71.59
50702;BME280;36670;50.094;8.496;2023-01-27T04:59:07;100835.94;;;3.54;71.30
50702;BME280;36670;50.094;8.496;2023-01-27T05:01:34;100827.16;;;3.58;71.49
50702;BME280;36670;50.094;8.496;2023-01-27T05:04:00;100834.16;;;3.46;71.58
50702;BME280;36670;50.094;8.496;2023-01-27T05:06:25;100835.56;;;3.57;71.60
50702;BME280;36670;50.094;8.496;2023-01-27T05:08:51;100838.78;;;3.46;72.05
50702;BME280;36670;50.094;8.496;2023-01-27T05:11:17;100840.75;;;3.52;72.16
50702;BME280;36670;50.094;8.496;2023-01-27T05:13:43;100844.13;;;3.54;71.54
50702;BME280;36670;50.094;8.496;2023-01-27T05:16:10;100847.28;;;3.72;71.26
50702;BME280;36670;50.094;8.496;2023-01-27T05:18:36;100842.19;;;3.91;70.92
50702;BME280;36670;50.094;8.496;2023-01-27T05:21:02;100848.56;;;3.76;71.24
50702;BME280;36670;50.094;8.496;2023-01-27T05:23:28;100838.63;;;3.90;70.91
50702;BME280;36670;50.094;8.496;2023-01-27T05:26:02;100841.81;;;3.94;70.09
50702;BME280;36670;50.094;8.496;2023-01-27T05:28:28;100842.00;;;3.71;71.17
50702;BME280;36670;50.094;8.496;2023-01-27T05:31:00;100852.41;;;3.61;71.61
50702;BME280;36670;50.094;8.496;2023-01-27T05:33:26;100851.44;;;3.68;71.51
50702;BME280;36670;50.094;8.496;2023-01-27T05:35:51;100853.56;;;3.73;71.38
50702;BME280;36670;50.094;8.496;2023-01-27T05:38:16;100845.50;;;3.86;70.88
50702;BME280;36670;50.094;8.496;2023-01-27T05:40:41;100856.59;;;4.00;70.58
50702;BME280;36670;50.094;8.496;2023-01-27T05:43:07;100844.66;;;4.07;70.27
50702;BME280;36670;50.094;8.496;2023-01-27T05:45:32;100853.97;;;4.13;69.88
50702;BME280;36670;50.094;8.496;2023-01-27T05:47:58;100858.53;;;4.06;70.20
50702;BME280;36670;50.094;8.496;2023-01-27T05:50:23;100850.38;;;4.13;69.98
50702;BME280;36670;50.094;8.496;2023-01-27T05:52:48;100854.81;;;3.92;70.49
50702;BME280;36670;50.094;8.496;2023-01-27T05:55:13;100851.44;;;3.90;71.01
50702;BME280;36670;50.094;8.496;2023-01-27T05:57:39;100858.09;;;4.02;70.87
50702;BME280;36670;50.094;8.496;2023-01-27T06:00:05;100858.78;;;3.89;70.85
50702;BME280;36670;50.094;8.496;2023-01-27T06:02:31;100860.69;;;3.89;71.24
50702;BME280;36670;50.094;8.496;2023-01-27T06:04:56;100867.75;;;4.05;70.13
50702;BME280;36670;50.094;8.496;2023-01-27T06:07:21;100861.97;;;3.93;70.94
50702;BME280;36670;50.094;8.496;2023-01-27T06:09:47;100868.81;;;4.04;70.51
50702;BME280;36670;50.094;8.496;2023-01-27T06:12:12;100868.63;;;4.05;70.63
50702;BME280;36670;50.094;8.496;2023-01-27T06:14:37;100872.88;;;4.15;70.73
50702;BME280;36670;50.094;8.496;2023-01-27T06:17:02;100871.66;;;4.17;70.61
50702;BME280;36670;50.094;8.496;2023-01-27T06:19:28;100887.34;;;4.08;71.05
50702;BME280;36670;50.094;8.496;2023-01-27T06:21:53;100871.09;;;4.22;70.38
50702;BME280;36670;50.094;8.496;2023-01-27T06:24:18;100873.94;;;3.92;71.45
50702;BME280;36670;50.094;8.496;2023-01-27T06:26:43;100880.03;;;4.16;70.64
50702;BME280;36670;50.094;8.496;2023-01-27T06:29:09;100879.41;;;4.14;70.56
50702;BME280;36670;50.094;8.496;2023-01-27T06:31:35;100880.91;;;4.16;70.29
50702;BME280;36670;50.094;8.496;2023-01-27T06:34:00;100880.31;;;3.99;70.77
50702;BME280;36670;50.094;8.496;2023-01-27T06:36:25;100893.41;;;4.04;71.29
50702;BME280;36670;50.094;8.496;2023-01-27T06:38:50;100886.81;;;4.20;70.76
50702;BME280;36670;50.094;8.496;2023-01-27T06:41:16;100887.06;;;4.03;70.90
50702;BME280;36670;50.094;8.496;2023-01-27T06:43:42;100885.34;;;3.96;71.04
50702;BME280;36670;50.094;8.496;2023-01-27T06:46:07;100892.09;;;4.00;70.89
50702;BME280;36670;50.094;8.496;2023-01-27T06:48:33;100888.78;;;4.04;71.06
50702;BME280;36670;50.094;8.496;2023-01-27T06:50:58;100898.06;;;4.10;70.88
50702;BME280;36670;50.094;8.496;2023-01-27T06:53:24;100899.84;;;4.18;70.58
50702;BME280;36670;50.094;8.496;2023-01-27T06:55:59;100895.81;;;4.14;70.48
50702;BME280;36670;50.094;8.496;2023-01-27T06:58:25;100893.41;;;4.04;71.05
50702;BME280;36670;50.094;8.496;2023-01-27T07:00:50;100899.50;;;3.84;71.57
50702;BME280;36670;50.094;8.496;2023-01-27T07:03:16;100899.22;;;4.01;71.50
50702;BME280;36670;50.094;8.496;2023-01-27T07:05:41;100891.25;;;4.21;70.96
50702;BME280;36670;50.094;8.496;2023-01-27T07:08:07;100895.16;;;4.12;70.73
50702;BME280;36670;50.094;8.496;2023-01-27T07:10:32;100902.72;;;4.09;70.64
50702;BME280;36670;50.094;8.496;2023-01-27T07:13:08;100898.75;;;4.12;70.56
50702;BME280;36670;50.094;8.496;2023-01-27T07:15:34;100902.31;;;4.34;70.37
50702;BME280;36670;50.094;8.496;2023-01-27T07:18:01;100906.09;;;4.33;69.73
50702;BME280;36670;50.094;8.496;2023-01-27T07:20:27;100914.28;;;4.33;70.33
50702;BME280;36670;50.094;8.496;2023-01-27T07:22:57;100913.75;;;4.23;69.57
50702;BME280;36670;50.094;8.496;2023-01-27T07:25:22;100907.84;;;4.19;69.89
50702;BME280;36670;50.094;8.496;2023-01-27T07:27:48;100912.91;;;4.22;70.56
50702;BME280;36670;50.094;8.496;2023-01-27T07:30:13;100919.09;;;4.31;69.91
50702;BME280;36670;50.094;8.496;2023-01-27T07:32:41;100913.19;;;4.56;69.29
50702;BME280;36670;50.094;8.496;2023-01-27T07:35:06;100923.91;;;4.29;70.37
50702;BME280;36670;50.094;8.496;2023-01-27T07:37:32;100923.16;;;4.64;69.94
50702;BME280;36670;50.094;8.496;2023-01-27T07:39:57;100931.44;;;4.49;69.60
50702;BME280;36670;50.094;8.496;2023-01-27T07:42:22;100928.84;;;4.40;69.79
50702;BME280;36670;50.094;8.496;2023-01-27T07:44:48;100927.88;;;4.48;70.05
50702;BME280;36670;50.094;8.496;2023-01-27T07:47:13;100931.59;;;4.40;69.57
50702;BME280;36670;50.094;8.496;2023-01-27T07:49:48;100934.84;;;4.29;69.97
50702;BME280;36670;50.094;8.496;2023-01-27T07:52:13;100941.34;;;4.50;69.93
50702;BME280;36670;50.094;8.496;2023-01-27T07:54:38;100938.84;;;4.55;69.59
50702;BME280;36670;50.094;8.496;2023-01-27T07:57:03;100940.41;;;4.42;69.87
50702;BME280;36670;50.094;8.496;2023-01-27T07:59:29;100938.22;;;4.53;69.55
50702;BME280;36670;50.094;8.496;2023-01-27T08:01:54;100940.50;;;4.49;69.69
50702;BME280;36670;50.094;8.496;2023-01-27T08:04:19;100940.34;;;4.57;69.43
50702;BME280;36670;50.094;8.496;2023-01-27T08:06:45;100945.97;;;4.49;70.31
50702;BME280;36670;50.094;8.496;2023-01-27T08:09:10;100942.06;;;4.58;69.42
50702;BME280;36670;50.094;8.496;2023-01-27T08:11:37;100945.47;;;4.39;69.78
50702;BME280;36670;50.094;8.496;2023-01-27T08:14:03;100946.22;;;4.54;69.57
50702;BME280;36670;50.094;8.496;2023-01-27T08:16:28;100947.53;;;4.58;69.42
50702;BME280;36670;50.094;8.496;2023-01-27T08:18:54;100953.75;;;4.52;70.08
50702;BME280;36670;50.094;8.496;2023-01-27T08:21:19;100945.13;;;4.77;68.48
50702;BME280;36670;50.094;8.496;2023-01-27T08:23:45;100946.16;;;4.69;69.38
50702;BME280;36670;50.094;8.496;2023-01-27T08:26:14;100954.69;;;4.88;69.04
50702;BME280;36670;50.094;8.496;2023-01-27T08:28:45;100946.34;;;4.68;68.78
50702;BME280;36670;50.094;8.496;2023-01-27T08:31:12;100958.13;;;4.68;69.64
50702;BME280;36670;50.094;8.496;2023-01-27T08:33:39;100961.81;;;4.60;69.42
50702;BME280;36670;50.094;8.496;2023-01-27T08:36:13;100969.66;;;4.64;69.20
50702;BME280;36670;50.094;8.496;2023-01-27T08:38:40;100966.25;;;4.61;69.50
50702;BME280;36670;50.094;8.496;2023-01-27T08:41:08;100975.09;;;4.85;68.89
50702;BME280;36670;50.094;8.496;2023-01-27T08:43:38;100969.31;;;4.73;68.42
50702;BME280;36670;50.094;8.496;2023-01-27T08:46:04;100975.75;;;4.87;68.41
50702;BME280;36670;50.094;8.496;2023-01-27T08:48:37;100983.19;;;4.72;68.81
50702;BME280;36670;50.094;8.496;2023-01-27T08:51:04;100979.75;;;4.63;68.69
50702;BME280;36670;50.094;8.496;2023-01-27T08:53:38;100975.16;;;4.70;68.96
50702;BME280;36670;50.094;8.496;2023-01-27T08:56:16;100976.59;;;4.88;68.37
50702;BME280;36670;50.094;8.496;2023-01-27T08:58:42;100981.72;;;4.98;68.55
50702;BME280;36670;50.094;8.496;2023-01-27T09:01:10;100987.09;;;5.12;68.12
50702;BME280;36670;50.094;8.496;2023-01-27T09:03:36;100996.28;;;5.05;67.82
50702;BME280;36670;50.094;8.496;2023-01-27T09:06:02;100991.63;;;4.99;68.17
50702;BME280;36670;50.094;8.496;2023-01-27T09:08:30;101006.94;;;4.93;68.63
50702;BME280;36670;50.094;8.496;2023-01-27T09:10:56;101004.59;;;5.18;67.83
50702;BME280;36670;50.094;8.496;2023-01-27T09:13:24;101010.97;;;4.97;68.19
50702;BME280;36670;50.094;8.496;2023-01-27T09:15:51;101012.78;;;4.90;67.85
50702;BME280;36670;50.094;8.496;2023-01-27T09:18:16;101023.44;;;4.78;68.25
50702;BME280;36670;50.094;8.496;2023-01-27T09:20:42;101013.94;;;4.74;68.77
50702;BME280;36670;50.094;8.496;2023-01-27T09:23:07;101024.66;;;4.75;69.04
50702;BME280;36670;50.094;8.496;2023-01-27T09:25:32;101021.09;;;4.75;69.21
50702;BME280;36670;50.094;8.496;2023-01-27T09:28:13;101018.78;;;4.78;68.97
50702;BME280;36670;50.094;8.496;2023-01-27T09:30:57;101020.16;;;4.89;68.82
50702;BME280;36670;50.094;8.496;2023-01-27T09:33:23;101021.72;;;4.99;68.42
50702;BME280;36670;50.094;8.496;2023-01-27T09:36:10;101017.69;;;4.73;69.69
50702;BME280;36670;50.094;8.496;2023-01-27T09:38:41;101013.94;;;4.74;69.37
50702;BME280;36670;50.094;8.496;2023-01-27T09:49:43;101014.69;;;4.89;69.00
50702;BME280;36670;50.094;8.496;2023-01-27T09:55:05;101020.56;;;4.65;69.50
50702;BME280;36670;50.094;8.496;2023-01-27T10:06:07;101012.31;;;5.08;67.90
50702;BME280;36670;50.094;8.496;2023-01-27T10:08:48;101013.19;;;4.87;68.54
50702;BME280;36670;50.094;8.496;2023-01-27T10:14:38;101008.94;;;5.06;67.51
50702;BME280;36670;50.094;8.496;2023-01-27T10:20:17;101011.56;;;5.21;67.70
50702;BME280;36670;50.094;8.496;2023-01-27T10:26:20;101005.28;;;5.27;67.38
50702;BME280;36670;50.094;8.496;2023-01-27T10:28:23;101002.34;;;5.28;67.37
50702;BME280;36670;50.094;8.496;2023-01-27T10:31:08;101014.53;;;5.19;67.08
50702;BME280;36670;50.094;8.496;2023-01-27T10:33:46;101011.66;;;5.34;66.98
50702;BME280;36670;50.094;8.496;2023-01-27T10:36:32;101007.19;;;5.26;67.14
50702;BME280;36670;50.094;8.496;2023-01-27T10:42:15;101006.91;;;5.50;66.85
50702;BME280;36670;50.094;8.496;2023-01-27T10:45:11;101005.59;;;5.45;67.00
50702;BME280;36670;50.094;8.496;2023-01-27T10:47:50;101012.00;;;5.59;66.20
50702;BME280;36670;50.094;8.496;2023-01-27T10:50:30;101009.84;;;5.48;65.86
50702;BME280;36670;50.094;8.496;2023-01-27T10:53:08;101012.16;;;5.44;66.88
50702;BME280;36670;50.094;8.496;2023-01-27T10:56:05;101031.63;;;5.63;65.79
50702;BME280;36670;50.094;8.496;2023-01-27T10:58:45;101009.78;;;5.41;66.35
50702;BME280;36670;50.094;8.496;2023-01-27T11:01:19;101009.38;;;5.38;66.53
50702;BME280;36670;50.094;8.496;2023-01-27T11:03:56;101007.19;;;5.61;66.00
50702;BME280;36670;50.094;8.496;2023-01-27T11:06:28;101005.25;;;5.55;66.34
50702;BME280;36670;50.094;8.496;2023-01-27T11:09:03;101006.59;;;5.31;66.25
50702;BME280;36670;50.094;8.496;2023-01-27T11:11:30;101008.53;;;5.37;66.22
50702;BME280;36670;50.094;8.496;2023-01-27T11:14:28;101003.69;;;5.39;65.99
50702;BME280;36670;50.094;8.496;2023-01-27T11:16:59;101008.91;;;5.34;65.80
50702;BME280;36670;50.094;8.496;2023-01-27T11:19:37;101009.09;;;5.61;65.69
50702;BME280;36670;50.094;8.496;2023-01-27T11:22:14;101001.94;;;5.67;64.59
50702;BME280;36670;50.094;8.496;2023-01-27T11:25:05;101000.00;;;5.60;64.97
50702;BME280;36670;50.094;8.496;2023-01-27T11:30:29;100995.41;;;5.68;64.20
50702;BME280;36670;50.094;8.496;2023-01-27T11:33:15;100997.28;;;5.60;64.31
50702;BME280;36670;50.094;8.496;2023-01-27T11:35:41;100992.03;;;5.66;65.04
50702;BME280;36670;50.094;8.496;2023-01-27T11:38:16;100995.03;;;5.77;63.76
50702;BME280;36670;50.094;8.496;2023-01-27T11:40:52;100989.41;;;5.92;64.28
50702;BME280;36670;50.094;8.496;2023-01-27T11:43:20;100985.28;;;6.10;64.63
50702;BME280;36670;50.094;8.496;2023-01-27T11:46:03;100984.91;;;5.71;64.11
50702;BME280;36670;50.094;8.496;2023-01-27T11:48:36;100988.09;;;5.75;63.93
50702;BME280;36670;50.094;8.496;2023-01-27T11:51:12;100989.75;;;5.76;64.37
50702;BME280;36670;50.094;8.496;2023-01-27T11:53:39;100997.41;;;5.94;63.10
50702;BME280;36670;50.094;8.496;2023-01-27T11:56:10;100990.66;;;5.90;62.99
50702;BME280;36670;50.094;8.496;2023-01-27T11:58:56;100988.63;;;5.63;63.86
50702;BME280;36670;50.094;8.496;2023-01-27T12:01:35;100979.66;;;5.83;63.41
50702;BME280;36670;50.094;8.496;2023-01-27T12:04:08;100971.44;;;5.76;63.96
50702;BME280;36670;50.094;8.496;2023-01-27T12:06:46;100977.25;;;6.02;63.74
50702;BME280;36670;50.094;8.496;2023-01-27T12:09:35;100971.66;;;5.81;63.75
50702;BME280;36670;50.094;8.496;2023-01-27T12:14:56;100967.06;;;5.89;63.83
50702;BME280;36670;50.094;8.496;2023-01-27T12:17:33;100966.72;;;5.98;63.92
50702;BME280;36670;50.094;8.496;2023-01-27T12:20:29;100979.44;;;5.78;64.30
50702;BME280;36670;50.094;8.496;2023-01-27T12:23:12;100969.09;;;5.67;64.48
50702;BME280;36670;50.094;8.496;2023-01-27T12:25:43;100968.63;;;5.63;64.97
50702;BME280;36670;50.094;8.496;2023-01-27T12:28:40;100968.88;;;5.68;65.07
50702;BME280;36670;50.094;8.496;2023-01-27T12:31:12;100968.63;;;5.63;65.07
50702;BME280;36670;50.094;8.496;2023-01-27T12:33:43;100961.69;;;5.67;64.99
50702;BME280;36670;50.094;8.496;2023-01-27T12:36:17;100954.97;;;5.70;65.09
50702;BME280;36670;50.094;8.496;2023-01-27T12:38:51;100954.75;;;5.71;64.69
50702;BME280;36670;50.094;8.496;2023-01-27T12:41:26;100956.03;;;5.75;64.89
50702;BME280;36670;50.094;8.496;2023-01-27T12:44:14;100953.72;;;5.72;65.08
50702;BME280;36670;50.094;8.496;2023-01-27T12:46:48;100951.13;;;5.57;64.84
50702;BME280;36670;50.094;8.496;2023-01-27T12:49:19;100943.03;;;5.42;65.07
50702;BME280;36670;50.094;8.496;2023-01-27T12:51:54;100953.88;;;5.64;64.00
50702;BME280;36670;50.094;8.496;2023-01-27T12:54:27;100953.78;;;5.44;64.74
50702;BME280;36670;50.094;8.496;2023-01-27T12:56:55;100948.38;;;5.57;64.32
50702;BME280;36670;50.094;8.496;2023-01-27T12:59:24;100949.66;;;5.61;63.51
50702;BME280;36670;50.094;8.496;2023-01-27T13:02:17;100953.06;;;5.70;63.44
50702;BME280;36670;50.094;8.496;2023-01-27T13:04:50;100959.06;;;5.94;63.54
50702;BME280;36670;50.094;8.496;2023-01-27T13:07:18;100957.63;;;5.98;63.44
50702;BME280;36670;50.094;8.496;2023-01-27T13:09:58;100955.47;;;5.93;63.29
50702;BME280;36670;50.094;8.496;2023-01-27T13:12:29;100957.53;;;5.78;63.24
50702;BME280;36670;50.094;8.496;2023-01-27T13:15:10;100951.66;;;5.88;62.93
50702;BME280;36670;50.094;8.496;2023-01-27T13:17:52;100966.06;;;6.03;62.77
50702;BME280;36670;50.094;8.496;2023-01-27T13:20:26;100960.81;;;6.02;62.93
50702;BME280;36670;50.094;8.496;2023-01-27T13:23:00;100962.44;;;5.96;62.12
50702;BME280;36670;50.094;8.496;2023-01-27T13:25:34;100969.97;;;5.80;62.73
50702;BME280;36670;50.094;8.496;2023-01-27T13:28:04;100971.00;;;5.73;62.66
50702;BME280;36670;50.094;8.496;2023-01-27T13:30:39;100970.19;;;5.79;62.92
50702;BME280;36670;50.094;8.496;2023-01-27T13:33:35;100972.25;;;5.70;63.35
50702;BME280;36670;50.094;8.496;2023-01-27T13:39:03;100972.63;;;5.60;63.90
50702;BME280;36670;50.094;8.496;2023-01-27T13:41:54;100976.00;;;5.62;63.87
50702;BME280;36670;50.094;8.496;2023-01-27T13:44:35;100980.38;;;5.50;63.38
50702;BME280;36670;50.094;8.496;2023-01-27T13:47:11;100986.97;;;5.62;64.16
50702;BME280;36670;50.094;8.496;2023-01-27T13:49:56;100983.00;;;5.72;63.76
50702;BME280;36670;50.094;8.496;2023-01-27T13:52:24;100974.81;;;5.78;63.76
50702;BME280;36670;50.094;8.496;2023-01-27T13:54:49;100979.84;;;5.68;64.51
50702;BME280;36670;50.094;8.496;2023-01-27T14:00:31;100991.38;;;5.98;63.74